Martin Challenger — WDB2346 — position and weather

sailwx.info

Track history (hours):
 
Tides and Currents Weather Stations Pressure Air Temp Water Temp Dewpoint Dewpoint Depression Visibility Wind Speed Wind Dir Waves Ship Positions

Martin Challenger

Owner: MARTIN OPERATING PARTNERSHIP LP, VIDOR, TX. More information available from US FCC via Universal Licensing System and Coast Guard Vessel Documentation Center.

Last reported at 2016-Feb-08 14:32 UTC. Time now 2016-Feb-09 05:39 UTC.
Position N 29°55' W 093°53'.

Length 20 m; draft 2.9 m.

MMSI: 366874920.

Date/timePositionNaut miles runAvg speedWind from/ knotsBaromVisibWave heightAir tempDewpointWater temp
2016-Feb-08 14:32N 29°55' W 093°53'0 0.1
2016-Feb-08 13:33N 29°55' W 093°53'0 0.0
2016-Feb-08 12:33N 29°55' W 093°53'0 0.0
2016-Feb-08 11:33N 29°55' W 093°53'0 0.0
2016-Feb-08 10:33N 29°55' W 093°53'0 0.0
2016-Feb-08 09:33N 29°55' W 093°53'0 0.0
2016-Feb-08 08:33N 29°55' W 093°53'0 0.0
2016-Feb-08 07:33N 29°55' W 093°53'0 0.0
2016-Feb-08 06:34N 29°55' W 093°53'0 0.0
2016-Feb-08 05:33N 29°55' W 093°53'0 0.0
2016-Feb-08 04:24N 29°55' W 093°53'62 1.5
2016-Feb-06 10:33N 29°44' W 095°03'0 0.0
2016-Feb-06 09:14N 29°44' W 095°03'0 0.1
2016-Feb-06 08:33N 29°44' W 095°03'0 0.0
2016-Feb-06 01:05N 29°44' W 095°03'0 0.6
2016-Feb-06 00:33N 29°44' W 095°03'3 1.5
2016-Feb-05 22:28N 29°47' W 095°04'0 0.3
2016-Feb-05 21:33N 29°47' W 095°04'1 0.9
2016-Feb-05 20:18N 29°46' W 095°05'3 4.4
2016-Feb-05 19:33N 29°44' W 095°02'5 5.1
2016-Feb-05 18:33N 29°40' W 094°58'5 5.4
2016-Feb-05 17:33N 29°35' W 094°56'  
2016-Feb-03 00:20N 29°21' W 094°49'2 2.2
2016-Feb-02 23:30N 29°22' W 094°47'0 0.1
2016-Feb-02 19:08N 29°22' W 094°47'  
Track history (hours):
 
Tides and Currents Weather Stations Pressure Air Temp Water Temp Dewpoint Dewpoint Depression Visibility Wind Speed Wind Dir Waves Ship Positions

Martin Challenger

Owner: MARTIN OPERATING PARTNERSHIP LP, VIDOR, TX. More information available from US FCC via Universal Licensing System and Coast Guard Vessel Documentation Center.

Last reported at 2016-Feb-08 14:32 UTC. Time now 2016-Feb-09 05:39 UTC.
Position N 29°55' W 093°53'.

Length 20 m; draft 2.9 m.

MMSI: 366874920.

Date/timePositionNaut miles runAvg speedWind from/ knotsBaromVisibWave heightAir tempDewpointWater temp
2016-Feb-08 14:32N 29°55' W 093°53'0 0.1
2016-Feb-08 13:33N 29°55' W 093°53'0 0.0
2016-Feb-08 12:33N 29°55' W 093°53'0 0.0
2016-Feb-08 11:33N 29°55' W 093°53'0 0.0
2016-Feb-08 10:33N 29°55' W 093°53'0 0.0
2016-Feb-08 09:33N 29°55' W 093°53'0 0.0
2016-Feb-08 08:33N 29°55' W 093°53'0 0.0
2016-Feb-08 07:33N 29°55' W 093°53'0 0.0
2016-Feb-08 06:34N 29°55' W 093°53'0 0.0
2016-Feb-08 05:33N 29°55' W 093°53'0 0.0
2016-Feb-08 04:24N 29°55' W 093°53'62 1.5
2016-Feb-06 10:33N 29°44' W 095°03'0 0.0
2016-Feb-06 09:14N 29°44' W 095°03'0 0.1
2016-Feb-06 08:33N 29°44' W 095°03'0 0.0
2016-Feb-06 01:05N 29°44' W 095°03'0 0.6
2016-Feb-06 00:33N 29°44' W 095°03'3 1.5
2016-Feb-05 22:28N 29°47' W 095°04'0 0.3
2016-Feb-05 21:33N 29°47' W 095°04'1 0.9
2016-Feb-05 20:18N 29°46' W 095°05'3 4.4
2016-Feb-05 19:33N 29°44' W 095°02'5 5.1
2016-Feb-05 18:33N 29°40' W 094°58'5 5.4
2016-Feb-05 17:33N 29°35' W 094°56'  
2016-Feb-03 00:20N 29°21' W 094°49'2 2.2
2016-Feb-02 23:30N 29°22' W 094°47'0 0.1
2016-Feb-02 19:08N 29°22' W 094°47'  

Dump ship's entire track history